createdAt,value
2018-12-02T00:00:48.238Z,47.2
2018-12-02T00:01:39.899Z,47.2
2018-12-02T00:02:29.161Z,47.1
2018-12-02T00:03:18.396Z,47.2
2018-12-02T00:04:08.756Z,47.2
2018-12-02T00:04:59.610Z,47.1
2018-12-02T00:05:49.114Z,47.1
2018-12-02T00:06:39.273Z,47.1
2018-12-02T00:24:50.838Z,47
2018-12-02T00:25:40.648Z,47
2018-12-02T00:26:30.999Z,47
2018-12-02T00:27:20.757Z,47
2018-12-02T00:28:11.048Z,47
2018-12-02T00:29:01.127Z,47
2018-12-02T00:29:51.159Z,47
2018-12-02T00:30:41.344Z,46.9
2018-12-02T00:31:31.311Z,47
2018-12-02T00:32:20.544Z,46.9
2018-12-02T00:33:10.874Z,46.9
2018-12-02T00:34:01.717Z,46.9
2018-12-02T00:34:50.997Z,46.9
2018-12-02T00:35:41.896Z,46.9
2018-12-02T00:36:31.654Z,46.9
2018-12-02T00:37:21.434Z,46.9
2018-12-02T00:38:11.524Z,46.9
2018-12-02T00:39:01.555Z,46.9
2018-12-02T00:39:51.069Z,46.9
2018-12-02T00:40:41.396Z,46.9
2018-12-02T00:41:31.750Z,46.9
2018-12-02T00:42:21.829Z,46.9
2018-12-02T00:43:12.121Z,46.9
2018-12-02T00:44:03.449Z,46.9
2018-12-02T00:44:51.931Z,46.9
2018-12-02T00:45:41.186Z,46.9
2018-12-02T00:46:31.516Z,46.9
2018-12-02T00:47:21.346Z,46.9
2018-12-02T00:48:12.181Z,46.9
2018-12-02T00:49:02.746Z,46.9
2018-12-02T00:49:52.299Z,46.9
2018-12-02T00:50:42.046Z,46.9
2018-12-02T00:51:32.691Z,46.9
2018-12-02T00:52:22.744Z,46.8
2018-12-02T00:53:12.801Z,46.8
2018-12-02T00:54:02.850Z,46.8
2018-12-02T00:54:52.370Z,46.8
2018-12-02T00:55:42.930Z,46.8
2018-12-02T00:56:32.480Z,46.8
2018-12-02T00:57:23.078Z,46.8
2018-12-02T00:58:12.858Z,46.8
2018-12-02T00:59:02.428Z,46.8
2018-12-02T00:59:53.253Z,46.8
2018-12-02T01:00:42.490Z,46.8
2018-12-02T01:01:33.106Z,46.8
2018-12-02T01:02:23.425Z,46.8
2018-12-02T01:03:13.225Z,46.8
2018-12-02T01:04:03.598Z,46.8
2018-12-02T01:04:53.333Z,46.8
2018-12-02T01:05:42.887Z,46.8
2018-12-02T01:06:33.160Z,46.8
2018-12-02T01:07:23.200Z,46.8
2018-12-02T01:08:13.284Z,46.8
2018-12-02T01:09:02.544Z,46.8
2018-12-02T01:09:53.115Z,46.7
2018-12-02T01:10:44.032Z,46.7
2018-12-02T01:11:33.792Z,46.7
2018-12-02T01:12:23.309Z,46.7
2018-12-02T01:13:14.175Z,46.7
2018-12-02T01:14:04.549Z,46.7
2018-12-02T01:14:54.074Z,46.7
2018-12-02T01:15:44.067Z,46.7
2018-12-02T01:16:34.122Z,46.7
2018-12-02T01:17:24.454Z,46.7
2018-12-02T01:18:14.241Z,46.7
2018-12-02T01:19:04.551Z,46.7
2018-12-02T01:19:54.368Z,46.7
2018-12-02T01:20:44.091Z,46.6
2018-12-02T01:21:34.212Z,46.6
2018-12-02T01:22:24.563Z,46.6
2018-12-02T01:23:14.861Z,46.6
2018-12-02T01:24:04.361Z,46.6
2018-12-02T01:24:54.701Z,46.6
2018-12-02T01:25:45.013Z,46.6
2018-12-02T01:26:34.536Z,46.6
2018-12-02T01:27:25.141Z,46.6
2018-12-02T01:28:14.958Z,46.6
2018-12-02T01:29:04.753Z,46.6
2018-12-02T01:29:55.290Z,46.6
2018-12-02T01:30:45.658Z,46.6
2018-12-02T01:31:34.876Z,46.6
2018-12-02T01:32:24.938Z,46.6
2018-12-02T01:33:14.172Z,46.6
2018-12-02T01:34:05.338Z,46.6
2018-12-02T01:34:54.835Z,46.6
2018-12-02T01:35:45.715Z,46.6
2018-12-02T01:36:35.525Z,46.6
2018-12-02T01:37:24.995Z,46.6
2018-12-02T01:38:15.345Z,46.6
2018-12-02T01:39:05.430Z,46.6
2018-12-02T01:39:54.872Z,46.6
2018-12-02T01:40:45.502Z,46.6
2018-12-02T01:41:35.835Z,46.5
2018-12-02T01:42:26.148Z,46.6
2018-12-02T01:43:15.402Z,46.5
2018-12-02T01:44:05.720Z,46.5
2018-12-02T01:44:56.389Z,46.5
2018-12-02T01:45:46.366Z,46.5
2018-12-02T01:46:35.917Z,46.5
2018-12-02T01:47:25.934Z,46.5
2018-12-02T01:48:15.740Z,46.5
2018-12-02T01:49:06.087Z,46.4
2018-12-02T01:49:56.133Z,46.4
2018-12-02T01:50:46.208Z,46.4
2018-12-02T01:51:35.954Z,46.4
2018-12-02T01:52:27.126Z,46.4
2018-12-02T01:53:16.342Z,46.4
2018-12-02T01:54:06.417Z,46.4
2018-12-02T01:54:56.486Z,46.4
2018-12-02T01:55:46.806Z,46.4
2018-12-02T01:56:36.574Z,46.4
2018-12-02T01:57:27.226Z,46.4
2018-12-02T01:58:16.701Z,46.4
2018-12-02T01:59:06.543Z,46.4
2018-12-02T01:59:55.984Z,46.4
2018-12-02T02:00:46.863Z,46.4
2018-12-02T02:01:37.219Z,46.4
2018-12-02T02:02:27.266Z,46.4
2018-12-02T02:03:17.579Z,46.4
2018-12-02T02:04:07.654Z,46.4
2018-12-02T02:04:57.713Z,46.4
2018-12-02T02:05:47.191Z,46.4
2018-12-02T02:06:37.828Z,46.4
2018-12-02T02:07:27.864Z,46.4
2018-12-02T02:08:17.941Z,46.4
2018-12-02T02:09:07.425Z,46.4
2018-12-02T02:09:58.053Z,46.4
2018-12-02T02:10:48.090Z,46.3
2018-12-02T02:11:37.665Z,46.3
2018-12-02T02:12:27.145Z,46.4
2018-12-02T02:13:18.018Z,46.3
2018-12-02T02:14:08.060Z,46.3
2018-12-02T02:14:58.122Z,46.3
2018-12-02T02:15:47.395Z,46.3
2018-12-02T02:16:38.520Z,46.3
2018-12-02T02:17:28.236Z,46.3
2018-12-02T02:18:18.087Z,46.3
2018-12-02T02:19:08.148Z,46.3
2018-12-02T02:19:58.207Z,46.3
2018-12-02T02:20:48.807Z,46.3
2018-12-02T02:21:38.327Z,46.3
2018-12-02T02:22:28.600Z,46.3
2018-12-02T02:23:18.952Z,46.3
2018-12-02T02:24:08.496Z,46.3
2018-12-02T02:24:58.804Z,46.3
2018-12-02T02:25:48.325Z,46.3
2018-12-02T02:26:39.199Z,46.3
2018-12-02T02:27:28.969Z,46.3
2018-12-02T02:28:18.990Z,46.3
2018-12-02T02:29:08.852Z,46.3
2018-12-02T02:29:58.889Z,46.3
2018-12-02T02:30:49.229Z,46.3
2018-12-02T02:31:39.006Z,46.3
2018-12-02T02:32:29.610Z,46.2
2018-12-02T02:33:18.836Z,46.3
2018-12-02T02:34:09.466Z,46.5
2018-12-02T02:34:58.722Z,46.6
2018-12-02T02:35:49.289Z,46.9
2018-12-02T02:36:39.354Z,47
2018-12-02T02:37:29.941Z,47.2
2018-12-02T02:38:20.315Z,47.4
2018-12-02T02:39:09.809Z,47.7
2018-12-02T02:39:59.291Z,47.9
2018-12-02T02:40:49.936Z,48.1
2018-12-02T02:41:40.240Z,48.4
2018-12-02T02:42:29.760Z,48.6
2018-12-02T02:43:20.948Z,48.9
2018-12-02T02:44:10.623Z,49.2
2018-12-02T02:44:59.638Z,49.4
2018-12-02T02:45:50.294Z,49.7
2018-12-02T02:46:40.364Z,49.9
2018-12-02T02:47:29.815Z,50.2
2018-12-02T02:48:20.440Z,50.4
2018-12-02T02:49:10.473Z,50.7
2018-12-02T02:49:59.425Z,50.9
2018-12-02T02:50:50.036Z,51.2
2018-12-02T02:51:40.658Z,51.4
2018-12-02T02:52:30.435Z,51.7
2018-12-02T02:54:10.550Z,52.2
2018-12-02T02:55:01.163Z,52.4
2018-12-02T02:55:50.935Z,52.7
2018-12-02T02:56:40.778Z,52.9
2018-12-02T02:57:30.508Z,53.2
2018-12-02T02:58:20.871Z,53.4
2018-12-02T02:59:11.150Z,53.6
2018-12-02T03:00:01.508Z,53.9
2018-12-02T03:00:50.451Z,54.1
2018-12-02T03:01:41.886Z,54.4
2018-12-02T03:02:31.380Z,54.6
2018-12-02T03:03:21.149Z,54.9
2018-12-02T03:04:11.245Z,55.1
2018-12-02T03:05:01.851Z,55.4
2018-12-02T03:05:51.925Z,55.6
2018-12-02T03:06:41.940Z,55.9
2018-12-02T03:07:31.754Z,56.1
2018-12-02T03:08:22.074Z,56.4
2018-12-02T03:09:12.113Z,56.6
2018-12-02T03:10:02.179Z,56.9
2018-12-02T03:10:51.953Z,57.1
2018-12-02T03:11:42.285Z,57.4
2018-12-02T03:12:32.363Z,57.6
2018-12-02T03:13:21.587Z,57.8
2018-12-02T03:14:12.782Z,58.1
2018-12-02T03:15:01.729Z,58.3
2018-12-02T03:16:42.369Z,58.8
2018-12-02T03:17:32.711Z,59.1
2018-12-02T03:18:22.467Z,59.3
2018-12-02T03:19:12.776Z,59.5
2018-12-02T03:20:02.014Z,59.8
2018-12-02T03:20:52.091Z,59.9
2018-12-02T03:21:42.148Z,59.9
2018-12-02T03:22:32.486Z,60.2
2018-12-02T03:23:22.817Z,60.4
2018-12-02T03:24:12.889Z,60.6
2018-12-02T03:25:02.956Z,60.6
2018-12-02T03:25:53.004Z,60.8
2018-12-02T03:26:43.313Z,61
2018-12-02T03:27:32.867Z,61.2
2018-12-02T03:28:22.925Z,61.4
2018-12-02T03:29:13.538Z,61.7
2018-12-02T03:30:03.421Z,61.9
2018-12-02T03:30:53.421Z,62.2
2018-12-02T03:31:43.773Z,62.3
2018-12-02T03:32:33.542Z,62.4
2018-12-02T03:33:23.109Z,62.4
2018-12-02T03:34:13.272Z,62.7
2018-12-02T03:35:03.355Z,62.8
2018-12-02T03:35:53.418Z,62.9
2018-12-02T03:36:43.159Z,62.9
2018-12-02T03:37:33.795Z,62.9
2018-12-02T03:38:23.588Z,63
2018-12-02T03:39:13.636Z,63
2018-12-02T03:40:04.003Z,63.1
2018-12-02T03:40:53.737Z,63.1
2018-12-02T03:41:44.085Z,63.1
2018-12-02T03:42:34.185Z,63.1
2018-12-02T03:43:23.908Z,63.1
2018-12-02T03:44:13.984Z,63.1
2018-12-02T03:45:05.106Z,63.1
2018-12-02T03:45:53.549Z,63.1
2018-12-02T03:46:44.779Z,63.1
2018-12-02T03:47:34.199Z,63.1
2018-12-02T03:48:24.519Z,63.1
2018-12-02T03:49:14.339Z,63.1
2018-12-02T03:50:04.606Z,63.1
2018-12-02T03:50:54.154Z,63.1
2018-12-02T03:51:44.771Z,63.1
2018-12-02T03:52:35.102Z,63.1
2018-12-02T03:53:24.879Z,63.1
2018-12-02T03:54:14.671Z,63.1
2018-12-02T03:55:05.231Z,63.1
2018-12-02T03:55:55.304Z,63
2018-12-02T03:56:45.096Z,63
2018-12-02T03:57:35.206Z,63
2018-12-02T03:58:25.466Z,63
2018-12-02T03:59:15.546Z,63
2018-12-02T04:00:04.826Z,63
2018-12-02T04:00:55.454Z,63
2018-12-02T04:01:44.876Z,63
2018-12-02T04:02:34.938Z,62.9
2018-12-02T04:03:25.837Z,63
2018-12-02T04:04:14.776Z,62.9
2018-12-02T04:05:05.166Z,62.9
2018-12-02T04:05:55.462Z,62.9
2018-12-02T04:06:46.056Z,62.9
2018-12-02T04:07:35.823Z,62.9
2018-12-02T04:08:25.911Z,62.9
2018-12-02T04:09:15.686Z,62.9
2018-12-02T04:10:05.718Z,62.9
2018-12-02T04:10:56.361Z,62.9
2018-12-02T04:11:45.583Z,62.9
2018-12-02T04:12:36.188Z,62.9
2018-12-02T04:13:25.678Z,62.8
2018-12-02T04:14:16.586Z,62.8
2018-12-02T04:15:05.803Z,62.8
2018-12-02T04:15:56.391Z,62.8
2018-12-02T04:16:46.803Z,62.8
2018-12-02T04:17:36.765Z,62.8
2018-12-02T04:18:26.323Z,62.8
2018-12-02T04:19:16.367Z,62.8
2018-12-02T04:20:06.431Z,62.8
2018-12-02T04:20:57.085Z,62.8
2018-12-02T04:21:46.532Z,62.8
2018-12-02T04:22:36.853Z,62.8
2018-12-02T04:23:26.972Z,62.8
2018-12-02T04:24:16.419Z,62.7
2018-12-02T04:25:07.320Z,62.7
2018-12-02T04:25:56.595Z,62.7
2018-12-02T04:26:47.417Z,62.7
2018-12-02T04:27:36.941Z,62.7
2018-12-02T04:28:26.990Z,62.7
2018-12-02T04:29:17.336Z,62.7
2018-12-02T04:30:07.109Z,62.7
2018-12-02T04:30:57.732Z,62.7
2018-12-02T04:31:47.503Z,62.6
2018-12-02T04:32:37.335Z,62.6
2018-12-02T04:33:27.579Z,62.6
2018-12-02T04:34:17.745Z,62.6
2018-12-02T04:35:08.014Z,62.6
2018-12-02T04:35:57.270Z,62.6
2018-12-02T04:36:47.868Z,62.6
2018-12-02T04:54:04.656Z,62.4
2018-12-02T04:54:54.881Z,62.4
2018-12-02T04:55:44.683Z,62.4
2018-12-02T04:56:34.981Z,62.4
2018-12-02T04:57:25.058Z,62.4
2018-12-02T04:58:15.402Z,62.4
2018-12-02T04:59:05.784Z,62.4
2018-12-02T04:59:54.984Z,62.4
2018-12-02T05:00:45.264Z,62.4
2018-12-02T05:01:34.798Z,62.3
2018-12-02T05:02:25.388Z,62.3
2018-12-02T05:03:15.716Z,62.3
2018-12-02T05:04:05.278Z,62.3
2018-12-02T05:04:55.846Z,62.3
2018-12-02T05:05:45.608Z,62.3
2018-12-02T05:06:35.960Z,62.3
2018-12-02T05:07:25.738Z,62.3
2018-12-02T05:08:15.485Z,62.3
2018-12-02T05:09:05.618Z,62.3
2018-12-02T05:09:55.681Z,62.3
2018-12-02T05:10:45.390Z,62.3
2018-12-02T05:11:35.740Z,62.3
2018-12-02T05:12:25.227Z,62.3
2018-12-02T05:13:16.110Z,62.2
2018-12-02T05:14:05.957Z,62.3
2018-12-02T05:14:56.243Z,62.2
2018-12-02T05:15:46.568Z,62.2
2018-12-02T05:16:36.387Z,62.2
2018-12-02T05:17:26.665Z,62.2
2018-12-02T05:18:16.735Z,62.2
2018-12-02T05:19:06.510Z,62.2
2018-12-02T05:19:57.055Z,62.1
2018-12-02T05:20:45.868Z,62.2
2018-12-02T05:21:36.437Z,62.1
2018-12-02T05:22:26.482Z,62.1
2018-12-02T05:23:16.815Z,62.1
2018-12-02T05:24:06.840Z,62.1
2018-12-02T05:24:56.918Z,62.1
2018-12-02T05:25:47.210Z,62.1
2018-12-02T05:26:37.023Z,62.1
2018-12-02T05:27:26.552Z,62.1
2018-12-02T05:28:16.912Z,62.1
2018-12-02T05:29:06.684Z,62.1
2018-12-02T05:29:57.025Z,62.1
2018-12-02T05:30:47.057Z,62.1
2018-12-02T05:31:36.821Z,62.1
2018-12-02T05:32:27.709Z,62.1
2018-12-02T05:33:17.202Z,62.1
2018-12-02T05:34:07.592Z,62
2018-12-02T05:34:57.596Z,62.1
2018-12-02T05:35:46.821Z,62
2018-12-02T05:36:38.346Z,62
2018-12-02T05:37:28.048Z,62
2018-12-02T05:38:17.278Z,62
2018-12-02T05:39:07.931Z,62
2018-12-02T05:39:57.733Z,62
2018-12-02T05:40:47.764Z,61.9
2018-12-02T05:41:38.021Z,61.9
2018-12-02T05:42:27.813Z,61.9
2018-12-02T05:43:17.354Z,61.9
2018-12-02T05:44:07.388Z,61.9
2018-12-02T05:44:58.308Z,61.9
2018-12-02T05:45:48.050Z,61.9
2018-12-02T05:46:38.367Z,61.9
2018-12-02T05:47:28.450Z,61.9
2018-12-02T05:48:18.285Z,61.9
2018-12-02T05:49:08.303Z,61.9
2018-12-02T05:49:58.330Z,61.9
2018-12-02T05:50:48.665Z,61.9
2018-12-02T05:51:38.490Z,61.9
2018-12-02T05:52:28.795Z,61.9
2018-12-02T05:53:18.849Z,61.9
2018-12-02T05:54:08.892Z,61.8
2018-12-02T05:54:58.686Z,61.8
2018-12-02T05:55:49.040Z,61.8
2018-12-02T05:56:39.607Z,61.8
2018-12-02T05:57:28.575Z,61.8
2018-12-02T05:58:18.919Z,61.8
2018-12-02T05:59:08.964Z,61.8
2018-12-02T05:59:59.027Z,61.8
2018-12-02T06:00:49.357Z,61.8
2018-12-02T06:01:39.947Z,61.8
2018-12-02T06:02:29.765Z,61.8
2018-12-02T06:03:19.524Z,61.8
2018-12-02T06:04:09.324Z,61.8
2018-12-02T06:04:59.352Z,61.8
2018-12-02T06:05:49.994Z,61.8
2018-12-02T06:06:39.297Z,61.8
2018-12-02T06:07:29.555Z,61.7
2018-12-02T06:08:19.592Z,61.7
2018-12-02T06:09:10.251Z,61.7
2018-12-02T06:10:00.259Z,61.7
2018-12-02T06:10:50.340Z,61.7
2018-12-02T06:11:45.179Z,61.6
2018-12-02T06:12:29.879Z,61.7
2018-12-02T06:13:19.946Z,61.6
2018-12-02T06:14:09.991Z,61.7
2018-12-02T06:15:00.051Z,61.6
2018-12-02T06:15:50.376Z,61.6
2018-12-02T06:16:40.736Z,61.6
2018-12-02T06:17:30.831Z,61.6
2018-12-02T06:18:20.829Z,61.6
2018-12-02T06:19:10.901Z,61.6
2018-12-02T06:20:06.831Z,61.6
2018-12-02T06:20:50.171Z,61.6
2018-12-02T06:21:41.110Z,61.6
2018-12-02T06:22:30.863Z,61.6
2018-12-02T06:23:20.905Z,61.6
2018-12-02T06:24:11.228Z,61.6
2018-12-02T06:25:01.006Z,61.6
2018-12-02T06:25:51.337Z,61.5
2018-12-02T06:26:40.908Z,61.5
2018-12-02T06:27:31.188Z,61.5
2018-12-02T06:28:21.530Z,61.5
2018-12-02T06:29:11.291Z,61.5
2018-12-02T06:30:01.077Z,61.5
2018-12-02T06:30:51.395Z,61.4
2018-12-02T06:31:41.476Z,61.5
2018-12-02T06:32:31.801Z,61.4
2018-12-02T06:33:21.860Z,61.4
2018-12-02T06:34:11.085Z,61.4
2018-12-02T06:35:01.415Z,61.4
2018-12-02T06:35:51.475Z,61.4
2018-12-02T06:36:42.536Z,61.4
2018-12-02T06:37:31.563Z,61.4
2018-12-02T06:38:22.190Z,61.4
2018-12-02T06:39:11.977Z,61.4
2018-12-02T06:40:02.350Z,61.4
2018-12-02T06:40:51.265Z,61.4
2018-12-02T06:41:42.664Z,61.4
2018-12-02T06:42:32.185Z,61.4
2018-12-02T06:43:22.270Z,61.4
2018-12-02T06:44:12.307Z,61.3
2018-12-02T06:45:02.099Z,61.4
2018-12-02T06:45:51.867Z,61.3
2018-12-02T06:46:42.189Z,61.3
2018-12-02T06:47:32.269Z,61.3
2018-12-02T06:48:22.864Z,61.3
2018-12-02T06:49:12.377Z,61.3
2018-12-02T06:50:02.984Z,61.3
2018-12-02T06:50:53.083Z,61.3
2018-12-02T06:51:43.350Z,61.3
2018-12-02T06:52:32.367Z,61.3
2018-12-02T06:53:23.217Z,61.3
2018-12-02T06:54:12.956Z,61.3
2018-12-02T06:55:03.046Z,61.3
2018-12-02T06:55:53.121Z,61.2
2018-12-02T06:56:42.921Z,61.2
2018-12-02T06:57:33.526Z,61.2
2018-12-02T06:58:23.281Z,61.2
2018-12-02T06:59:13.599Z,61.2
2018-12-02T07:00:03.131Z,61.2
2018-12-02T07:00:53.730Z,61.2
2018-12-02T07:01:43.773Z,61.2
2018-12-02T07:02:33.156Z,61.1
2018-12-02T07:03:23.616Z,61.2
2018-12-02T07:04:13.958Z,61.1
2018-12-02T07:05:04.026Z,61.1
2018-12-02T07:05:54.066Z,61.1
2018-12-02T07:06:43.594Z,61.1
2018-12-02T07:07:33.877Z,61.1
2018-12-02T07:08:24.007Z,61.1
2018-12-02T07:09:13.998Z,61.1
2018-12-02T07:10:03.533Z,61.1
2018-12-02T07:10:54.124Z,61.1
2018-12-02T07:11:44.173Z,61.1
2018-12-02T07:12:34.218Z,61.1
2018-12-02T07:13:24.576Z,61.1
2018-12-02T07:14:14.357Z,61
2018-12-02T07:15:03.865Z,61
2018-12-02T07:15:53.692Z,61
2018-12-02T07:16:44.567Z,61
2018-12-02T07:17:34.862Z,61
2018-12-02T07:18:24.724Z,61
2018-12-02T07:19:14.692Z,61
2018-12-02T07:20:04.990Z,61
2018-12-02T07:20:54.507Z,61
2018-12-02T07:21:44.592Z,60.9
2018-12-02T07:22:35.484Z,60.9
2018-12-02T07:23:25.494Z,60.9
2018-12-02T07:24:14.771Z,60.9
2018-12-02T07:25:04.547Z,60.9
2018-12-02T07:25:55.136Z,60.9
2018-12-02T07:26:45.197Z,60.9
2018-12-02T07:27:34.769Z,60.9
2018-12-02T07:28:24.749Z,60.9
2018-12-02T07:29:15.699Z,60.9
2018-12-02T07:30:04.667Z,60.9
2018-12-02T07:30:55.494Z,60.9
2018-12-02T07:31:45.541Z,60.9
2018-12-02T07:32:35.874Z,60.9
2018-12-02T07:33:25.946Z,60.8
2018-12-02T07:34:15.167Z,60.8
2018-12-02T07:35:05.738Z,60.8
2018-12-02T07:35:55.849Z,60.8
2018-12-02T07:36:46.153Z,60.8
2018-12-02T07:37:35.956Z,60.8
2018-12-02T07:38:25.714Z,60.8
2018-12-02T07:39:16.084Z,60.8
2018-12-02T07:40:05.583Z,60.8
2018-12-02T07:40:55.333Z,60.8
2018-12-02T07:41:46.233Z,60.8
2018-12-02T07:42:36.283Z,60.8
2018-12-02T07:43:25.588Z,60.8
2018-12-02T07:44:16.406Z,60.8
2018-12-02T07:45:06.463Z,60.8
2018-12-02T07:45:56.751Z,60.7
2018-12-02T07:46:46.578Z,60.7
2018-12-02T07:47:36.079Z,60.7
2018-12-02T07:48:25.913Z,60.7
2018-12-02T07:49:16.745Z,60.7
2018-12-02T07:50:06.595Z,60.7
2018-12-02T07:50:56.819Z,60.7
2018-12-02T07:51:46.897Z,60.6
2018-12-02T07:52:37.033Z,60.6
2018-12-02T07:53:26.763Z,60.6
2018-12-02T07:54:17.385Z,60.6
2018-12-02T07:55:07.155Z,60.6
2018-12-02T07:55:57.305Z,60.6
2018-12-02T07:56:47.539Z,60.6
2018-12-02T07:57:37.375Z,60.6
2018-12-02T07:58:27.627Z,60.6
2018-12-02T07:59:17.407Z,60.6
2018-12-02T08:00:07.220Z,60.6
2018-12-02T08:00:57.252Z,60.6
2018-12-02T08:01:47.610Z,60.6
2018-12-02T08:02:37.650Z,60.6
2018-12-02T08:03:27.447Z,60.6
2018-12-02T08:04:16.970Z,60.5
2018-12-02T08:05:07.817Z,60.5
2018-12-02T08:05:57.899Z,60.5
2018-12-02T08:06:47.665Z,60.5
2018-12-02T08:07:38.287Z,60.5
2018-12-02T08:08:27.218Z,60.5
2018-12-02T08:09:18.366Z,60.4
2018-12-02T08:10:08.136Z,60.5
2018-12-02T08:10:58.234Z,60.5
2018-12-02T08:11:48.284Z,60.4
2018-12-02T08:12:38.063Z,60.4
2018-12-02T08:13:28.405Z,60.4
2018-12-02T08:14:18.490Z,60.4
2018-12-02T08:15:08.284Z,60.4
2018-12-02T08:15:58.281Z,60.4
2018-12-02T08:16:48.438Z,60.4
2018-12-02T08:17:38.133Z,60.4
2018-12-02T08:18:28.746Z,60.4
2018-12-02T08:19:18.491Z,60.4
2018-12-02T08:20:08.816Z,60.4
2018-12-02T08:20:58.952Z,60.4
2018-12-02T08:21:48.463Z,60.3
2018-12-02T08:22:39.305Z,60.3
2018-12-02T08:23:29.072Z,60.3
2018-12-02T08:24:19.140Z,60.3
2018-12-02T08:25:09.470Z,60.3
2018-12-02T08:25:58.978Z,60.3
2018-12-02T08:26:49.280Z,60.3
2018-12-02T08:27:39.649Z,60.3
2018-12-02T08:28:29.155Z,60.3
2018-12-02T08:29:19.475Z,60.3
2018-12-02T08:30:09.834Z,60.3
2018-12-02T08:30:59.055Z,60.3
2018-12-02T08:31:49.682Z,60.3
2018-12-02T08:32:39.744Z,60.3
2018-12-02T08:33:28.747Z,60.3
2018-12-02T08:34:19.551Z,60.2
2018-12-02T08:35:09.917Z,60.2
2018-12-02T08:35:59.939Z,60.2
2018-12-02T08:36:49.741Z,60.2
2018-12-02T08:37:39.496Z,60.2
2018-12-02T08:38:30.118Z,60.2
2018-12-02T08:39:19.906Z,60.1
2018-12-02T08:40:09.992Z,60.1
2018-12-02T08:41:00.014Z,60.2
2018-12-02T08:41:50.344Z,60.1
2018-12-02T08:42:40.706Z,60.1
2018-12-02T08:43:30.756Z,60.1
2018-12-02T08:44:20.298Z,60.1
2018-12-02T08:45:09.771Z,60.1
2018-12-02T08:46:00.713Z,60.1
2018-12-02T08:46:50.438Z,60.1
2018-12-02T08:47:40.808Z,60.1
2018-12-02T08:48:30.348Z,60.1
2018-12-02T08:49:20.310Z,60.1
2018-12-02T08:50:11.020Z,60.1
2018-12-02T08:51:00.707Z,60.1
2018-12-02T08:51:51.411Z,60.1
2018-12-02T08:52:41.129Z,60.1
2018-12-02T09:08:29.872Z,59.9
2018-12-02T09:09:20.715Z,59.9
2018-12-02T09:10:09.159Z,59.9
2018-12-02T09:10:59.975Z,59.8
2018-12-02T09:11:50.289Z,59.8
2018-12-02T09:12:40.340Z,59.8
2018-12-02T09:13:29.667Z,59.8
2018-12-02T09:14:19.937Z,59.8
2018-12-02T09:15:10.774Z,59.8
2018-12-02T09:16:00.559Z,59.8
2018-12-02T09:16:50.624Z,59.8
2018-12-02T09:17:40.140Z,59.8
2018-12-02T09:18:31.327Z,59.8
2018-12-02T09:19:20.819Z,59.8
2018-12-02T09:20:10.302Z,59.7
2018-12-02T09:20:59.825Z,59.8
2018-12-02T09:21:50.423Z,59.7
2018-12-02T09:22:41.024Z,59.7
2018-12-02T09:23:30.596Z,59.7
2018-12-02T09:24:20.426Z,59.7
2018-12-02T09:25:11.491Z,59.7
2018-12-02T09:26:00.994Z,59.7
2018-12-02T09:26:50.758Z,59.7
2018-12-02T09:27:40.826Z,59.7
2018-12-02T09:28:31.713Z,59.7
2018-12-02T09:29:21.774Z,59.6
2018-12-02T09:30:11.836Z,59.6
2018-12-02T09:31:00.320Z,59.6
2018-12-02T09:31:51.390Z,59.6
2018-12-02T09:32:41.728Z,59.6
2018-12-02T09:33:31.511Z,59.6
2018-12-02T09:34:22.131Z,59.6
2018-12-02T09:35:11.641Z,59.6
2018-12-02T09:36:01.973Z,59.6
2018-12-02T09:36:57.822Z,59.6
2018-12-02T09:37:42.139Z,59.6
2018-12-02T09:38:32.137Z,59.6
2018-12-02T09:39:21.996Z,59.5
2018-12-02T09:40:11.698Z,59.6
2018-12-02T09:41:02.060Z,59.5
2018-12-02T09:41:51.808Z,59.5
2018-12-02T09:42:42.758Z,59.5
2018-12-02T09:43:32.481Z,59.5
2018-12-02T09:44:22.850Z,59.4
2018-12-02T09:45:12.072Z,59.4
2018-12-02T09:46:02.901Z,59.4
2018-12-02T09:46:52.165Z,59.4
2018-12-02T09:47:42.770Z,59.4
2018-12-02T09:48:33.113Z,59.4
2018-12-02T09:49:21.865Z,59.4
2018-12-02T09:50:13.472Z,59.4
2018-12-02T09:51:03.552Z,59.4
2018-12-02T09:51:53.352Z,59.4
2018-12-02T09:52:42.874Z,59.4
2018-12-02T09:53:33.492Z,59.4
2018-12-02T09:54:26.465Z,59.4
2018-12-02T09:55:12.754Z,59.4
2018-12-02T09:56:03.378Z,59.3
2018-12-02T09:56:53.422Z,59.3
2018-12-02T09:57:43.009Z,59.3
2018-12-02T09:58:33.262Z,59.3
2018-12-02T09:59:22.750Z,59.3
2018-12-02T10:00:13.689Z,59.3
2018-12-02T10:01:02.905Z,59.3
2018-12-02T10:01:53.224Z,59.3
2018-12-02T10:02:43.282Z,59.3
2018-12-02T10:03:33.622Z,59.3
2018-12-02T10:04:24.937Z,59.3
2018-12-02T10:05:13.527Z,59.3
2018-12-02T10:06:04.109Z,59.3
2018-12-02T10:06:54.148Z,59.2
2018-12-02T10:07:43.912Z,59.2
2018-12-02T10:08:34.234Z,59.2
2018-12-02T10:09:24.297Z,59.2
2018-12-02T10:10:13.814Z,59.2
2018-12-02T10:11:04.141Z,59.2
2018-12-02T10:11:54.197Z,59.1
2018-12-02T10:12:44.534Z,59.1
2018-12-02T10:13:34.841Z,59.1
2018-12-02T10:14:24.634Z,59.1
2018-12-02T10:15:14.699Z,59.1
2018-12-02T10:16:05.076Z,59.1
2018-12-02T10:16:55.106Z,59.1
2018-12-02T10:17:44.611Z,59.1
2018-12-02T10:18:34.674Z,59.1
2018-12-02T10:19:24.741Z,59.1
2018-12-02T10:20:15.066Z,59.1
2018-12-02T10:21:05.121Z,59.1
2018-12-02T10:21:55.135Z,59.1
2018-12-02T10:22:44.973Z,59.1
2018-12-02T10:23:35.002Z,59
2018-12-02T10:24:24.905Z,59
2018-12-02T10:25:14.846Z,59
2018-12-02T10:26:05.963Z,59
2018-12-02T10:26:55.520Z,59
2018-12-02T10:27:44.555Z,59
2018-12-02T10:28:34.598Z,58.9
2018-12-02T10:29:25.398Z,58.9
2018-12-02T10:30:15.463Z,58.9
2018-12-02T10:31:05.829Z,58.9
2018-12-02T10:31:56.187Z,58.9
2018-12-02T10:32:45.940Z,58.9
2018-12-02T10:33:35.977Z,58.9
2018-12-02T10:34:25.488Z,58.9
2018-12-02T10:35:15.638Z,58.9
2018-12-02T10:36:06.195Z,58.9
2018-12-02T10:36:56.545Z,58.9
2018-12-02T10:37:45.439Z,58.9
2018-12-02T10:38:36.595Z,58.9
2018-12-02T10:39:25.565Z,58.9
2018-12-02T10:40:16.724Z,58.8
2018-12-02T10:41:06.544Z,58.8
2018-12-02T10:41:56.532Z,58.8
2018-12-02T10:42:46.347Z,58.8
2018-12-02T10:43:36.682Z,58.8
2018-12-02T10:44:27.007Z,58.8
2018-12-02T10:45:17.079Z,58.8
2018-12-02T10:46:06.632Z,58.8
2018-12-02T10:46:56.947Z,58.8
2018-12-02T10:47:46.971Z,58.8
2018-12-02T10:48:36.735Z,58.8
2018-12-02T10:49:27.106Z,58.8
2018-12-02T10:50:17.156Z,58.8
2018-12-02T10:51:06.994Z,58.7
2018-12-02T10:51:57.356Z,58.7
2018-12-02T10:52:46.873Z,58.7
2018-12-02T10:53:36.551Z,58.7
2018-12-02T10:54:26.671Z,58.7
2018-12-02T10:55:17.486Z,58.7
2018-12-02T10:56:07.341Z,58.7
2018-12-02T10:56:57.376Z,58.7
2018-12-02T10:57:47.086Z,58.6
2018-12-02T10:58:38.028Z,58.6
2018-12-02T10:59:27.791Z,58.6
2018-12-02T11:00:17.846Z,58.6
2018-12-02T11:01:07.359Z,58.6
2018-12-02T11:01:57.400Z,58.6
2018-12-02T11:05:18.473Z,58.5
2018-12-02T11:06:08.538Z,58.5
2018-12-02T11:06:57.553Z,58.5
2018-12-02T11:07:47.775Z,58.5
2018-12-02T11:08:38.775Z,58.4
2018-12-02T11:09:27.905Z,58.4
2018-12-02T11:10:18.237Z,58.4
2018-12-02T11:11:08.078Z,58.4
2018-12-02T11:11:58.443Z,58.4
2018-12-02T11:12:48.760Z,58.4
2018-12-02T11:13:38.216Z,58.4
2018-12-02T11:14:28.537Z,58.4
2018-12-02T11:15:19.177Z,58.4
2018-12-02T11:16:08.677Z,58.4
2018-12-02T11:16:59.276Z,58.3
2018-12-02T11:17:48.250Z,58.3
2018-12-02T11:18:39.431Z,58.3
2018-12-02T11:19:28.907Z,58.3
2018-12-02T11:20:18.958Z,58.3
2018-12-02T11:21:09.090Z,58.3
2018-12-02T11:21:59.327Z,58.3
2018-12-02T11:22:49.195Z,58.3
2018-12-02T11:23:39.197Z,58.3
2018-12-02T11:24:29.787Z,58.3
2018-12-02T11:25:19.635Z,58.3
2018-12-02T11:26:09.361Z,58.3
2018-12-02T11:26:59.704Z,58.2
2018-12-02T11:27:49.866Z,58.2
2018-12-02T11:28:39.531Z,58.2
2018-12-02T11:29:30.475Z,58.2
2018-12-02T11:30:19.667Z,58.2
2018-12-02T11:31:09.979Z,58.1
2018-12-02T11:32:00.049Z,58.1
2018-12-02T11:32:50.403Z,58.1
2018-12-02T11:33:39.886Z,58.1
2018-12-02T11:34:30.541Z,58.1
2018-12-02T11:35:20.291Z,58.1
2018-12-02T11:36:09.842Z,58.1
2018-12-02T11:36:59.564Z,58.1
2018-12-02T11:37:50.459Z,58.1
2018-12-02T11:38:39.681Z,58.1
2018-12-02T11:39:29.761Z,58.1
2018-12-02T11:40:20.366Z,58
2018-12-02T11:41:10.999Z,58
2018-12-02T11:41:59.924Z,58
2018-12-02T11:42:50.538Z,58
2018-12-02T11:43:41.143Z,58
2018-12-02T11:44:31.213Z,58
2018-12-02T11:45:21.012Z,57.9
2018-12-02T11:46:11.335Z,57.9
2018-12-02T11:47:00.829Z,57.9
2018-12-02T11:47:51.203Z,57.9
2018-12-02T11:48:41.500Z,57.9
2018-12-02T11:49:31.560Z,57.9
2018-12-02T11:50:21.622Z,57.9
2018-12-02T11:51:11.643Z,57.9
2018-12-02T11:52:01.741Z,57.9
2018-12-02T11:52:51.532Z,57.9
2018-12-02T11:53:41.806Z,57.9
2018-12-02T11:54:31.923Z,57.9
2018-12-02T11:55:22.000Z,57.8
2018-12-02T11:56:12.010Z,57.8
2018-12-02T11:57:01.830Z,57.8
2018-12-02T11:59:32.047Z,57.7
2018-12-02T12:00:21.505Z,57.7
2018-12-02T12:01:12.110Z,57.7
2018-12-02T12:02:07.884Z,57.6
2018-12-02T12:02:51.990Z,57.6
2018-12-02T12:03:42.062Z,57.6